MMTG/TGZ METAR and TAF weather

Enter ICAO airport designator
Station Type Date Time Source
MMTG METAR 2018/12/12 04:47 UTC NOAA

MMTG 120447Z 28003KT 12SM SKC 17/14 A3019 RMK ISOLD SC AC


Station Type Date Time Source
MMTG Decoded METAR 2018/12/12 04:47 UTC NOAA

Tuxtla Gutierrez, Chis., Mexico (MMTG) 16-45N 093-07W
Dec 11, 2018 - 11:47 PM EST / 2018.12.12 0447 UTC
Wind: from the W (280 degrees) at 3 MPH (3 KT):0
Visibility: 12 mile(s):0
Sky conditions: clear
Temperature: 62 F (17 C)
Dew Point: 57 F (14 C)
Relative Humidity: 82%
Pressure (altimeter): 30.19 in. Hg (1022 hPa)
ob: MMTG 120447Z 28003KT 12SM SKC 17/14 A3019 RMK ISOLD SC AC
cycle: 5

Station Type Date Time Source
MMTG TAF 2018/12/12 06:57 UTC NOAA

TAF MMTG 120450Z 1206/1306 33005KT P6SM SCT080
TEMPO 1210/1214 2SM BR SCT015
FM121700 30012KT P6SM SCT020
FM130200 30005KT P6SM SCT020


Example: see airport list